sensor_id;sensor_type;location;lat;lon;timestamp;P1;durP1;ratioP1;P2;durP2;ratioP2
64598;SDS011;51008;51.504;11.548;2022-11-15T00:01:56;16.85;;;8.13;;
64598;SDS011;51008;51.504;11.548;2022-11-15T00:07:16;13.85;;;7.63;;
64598;SDS011;51008;51.504;11.548;2022-11-15T00:12:35;13.35;;;7.38;;
64598;SDS011;51008;51.504;11.548;2022-11-15T00:17:55;12.38;;;7.25;;
64598;SDS011;51008;51.504;11.548;2022-11-15T00:23:14;14.65;;;7.70;;
64598;SDS011;51008;51.504;11.548;2022-11-15T00:28:34;11.93;;;6.90;;
64598;SDS011;51008;51.504;11.548;2022-11-15T00:33:53;14.40;;;7.85;;
64598;SDS011;51008;51.504;11.548;2022-11-15T00:39:13;14.55;;;7.65;;
64598;SDS011;51008;51.504;11.548;2022-11-15T00:44:32;15.57;;;6.65;;
64598;SDS011;51008;51.504;11.548;2022-11-15T00:49:52;10.48;;;6.15;;
64598;SDS011;51008;51.504;11.548;2022-11-15T00:55:15;13.15;;;6.75;;
64598;SDS011;51008;51.504;11.548;2022-11-15T01:00:36;12.73;;;6.43;;
64598;SDS011;51008;51.504;11.548;2022-11-15T01:05:58;11.32;;;6.43;;
64598;SDS011;51008;51.504;11.548;2022-11-15T01:11:18;14.82;;;7.07;;
64598;SDS011;51008;51.504;11.548;2022-11-15T01:16:38;17.58;;;6.85;;
64598;SDS011;51008;51.504;11.548;2022-11-15T01:21:57;16.70;;;9.85;;
64598;SDS011;51008;51.504;11.548;2022-11-15T01:27:17;17.58;;;9.85;;
64598;SDS011;51008;51.504;11.548;2022-11-15T01:32:37;18.13;;;9.75;;
64598;SDS011;51008;51.504;11.548;2022-11-15T01:37:56;19.23;;;10.23;;
64598;SDS011;51008;51.504;11.548;2022-11-15T01:43:20;18.50;;;10.23;;
64598;SDS011;51008;51.504;11.548;2022-11-15T01:48:44;18.77;;;9.63;;
64598;SDS011;51008;51.504;11.548;2022-11-15T01:54:05;19.15;;;9.95;;
64598;SDS011;51008;51.504;11.548;2022-11-15T01:59:29;16.73;;;9.40;;
64598;SDS011;51008;51.504;11.548;2022-11-15T02:04:49;17.65;;;9.57;;
64598;SDS011;51008;51.504;11.548;2022-11-15T02:10:10;17.27;;;9.63;;
64598;SDS011;51008;51.504;11.548;2022-11-15T02:15:33;17.77;;;9.73;;
64598;SDS011;51008;51.504;11.548;2022-11-15T02:38:22;19.58;;;10.00;;
64598;SDS011;51008;51.504;11.548;2022-11-15T02:44:15;17.45;;;9.63;;
64598;SDS011;51008;51.504;11.548;2022-11-15T02:49:42;19.48;;;9.02;;
64598;SDS011;51008;51.504;11.548;2022-11-15T02:55:04;18.60;;;9.38;;
64598;SDS011;51008;51.504;11.548;2022-11-15T03:00:24;19.48;;;9.60;;
64598;SDS011;51008;51.504;11.548;2022-11-15T03:05:44;16.75;;;8.55;;
64598;SDS011;51008;51.504;11.548;2022-11-15T03:11:16;19.27;;;9.70;;
64598;SDS011;51008;51.504;11.548;2022-11-15T03:16:39;20.77;;;10.27;;
64598;SDS011;51008;51.504;11.548;2022-11-15T03:22:06;18.80;;;9.82;;
64598;SDS011;51008;51.504;11.548;2022-11-15T03:27:31;19.35;;;9.82;;
64598;SDS011;51008;51.504;11.548;2022-11-15T03:32:56;18.58;;;9.70;;
64598;SDS011;51008;51.504;11.548;2022-11-15T03:38:28;16.63;;;8.95;;
64598;SDS011;51008;51.504;11.548;2022-11-15T03:43:55;17.15;;;9.50;;
64598;SDS011;51008;51.504;11.548;2022-11-15T03:49:25;19.52;;;9.35;;
64598;SDS011;51008;51.504;11.548;2022-11-15T03:54:50;17.70;;;9.00;;
64598;SDS011;51008;51.504;11.548;2022-11-15T04:00:11;18.90;;;8.77;;
64598;SDS011;51008;51.504;11.548;2022-11-15T04:05:31;15.75;;;8.40;;
64598;SDS011;51008;51.504;11.548;2022-11-15T04:10:50;16.55;;;8.48;;
64598;SDS011;51008;51.504;11.548;2022-11-15T04:16:10;16.77;;;7.38;;
64598;SDS011;51008;51.504;11.548;2022-11-15T04:21:30;16.23;;;8.18;;
64598;SDS011;51008;51.504;11.548;2022-11-15T04:26:49;15.20;;;8.18;;
64598;SDS011;51008;51.504;11.548;2022-11-15T04:32:09;13.23;;;7.28;;
64598;SDS011;51008;51.504;11.548;2022-11-15T04:37:28;14.45;;;8.27;;
64598;SDS011;51008;51.504;11.548;2022-11-15T04:42:48;14.15;;;7.93;;
64598;SDS011;51008;51.504;11.548;2022-11-15T04:48:07;14.98;;;8.00;;
64598;SDS011;51008;51.504;11.548;2022-11-15T04:53:27;16.95;;;8.23;;
64598;SDS011;51008;51.504;11.548;2022-11-15T04:58:49;15.23;;;8.23;;
64598;SDS011;51008;51.504;11.548;2022-11-15T05:04:09;14.57;;;8.10;;
64598;SDS011;51008;51.504;11.548;2022-11-15T05:09:28;15.25;;;8.52;;
64598;SDS011;51008;51.504;11.548;2022-11-15T05:14:48;20.50;;;10.68;;
64598;SDS011;51008;51.504;11.548;2022-11-15T05:20:08;22.92;;;9.45;;
64598;SDS011;51008;51.504;11.548;2022-11-15T05:25:28;18.67;;;9.73;;
64598;SDS011;51008;51.504;11.548;2022-11-15T05:30:47;15.68;;;8.20;;
64598;SDS011;51008;51.504;11.548;2022-11-15T05:41:50;16.35;;;8.65;;
64598;SDS011;51008;51.504;11.548;2022-11-15T05:47:17;21.42;;;10.73;;
64598;SDS011;51008;51.504;11.548;2022-11-15T05:52:44;18.75;;;9.70;;
64598;SDS011;51008;51.504;11.548;2022-11-15T05:58:05;17.08;;;8.98;;
64598;SDS011;51008;51.504;11.548;2022-11-15T06:03:25;18.00;;;9.10;;
64598;SDS011;51008;51.504;11.548;2022-11-15T06:08:44;18.02;;;9.57;;
64598;SDS011;51008;51.504;11.548;2022-11-15T06:14:04;16.08;;;8.57;;
64598;SDS011;51008;51.504;11.548;2022-11-15T06:19:24;15.18;;;8.30;;
64598;SDS011;51008;51.504;11.548;2022-11-15T06:24:43;14.60;;;8.05;;
64598;SDS011;51008;51.504;11.548;2022-11-15T06:30:03;18.27;;;8.68;;
64598;SDS011;51008;51.504;11.548;2022-11-15T06:35:23;15.75;;;7.72;;
64598;SDS011;51008;51.504;11.548;2022-11-15T06:40:43;20.75;;;9.10;;
64598;SDS011;51008;51.504;11.548;2022-11-15T06:46:03;14.75;;;7.97;;
64598;SDS011;51008;51.504;11.548;2022-11-15T06:51:23;15.70;;;7.95;;
64598;SDS011;51008;51.504;11.548;2022-11-15T06:56:43;14.98;;;8.35;;
64598;SDS011;51008;51.504;11.548;2022-11-15T07:02:02;19.65;;;9.07;;
64598;SDS011;51008;51.504;11.548;2022-11-15T07:07:22;15.18;;;8.73;;
64598;SDS011;51008;51.504;11.548;2022-11-15T07:12:42;16.90;;;8.07;;
64598;SDS011;51008;51.504;11.548;2022-11-15T07:18:05;18.58;;;9.05;;
64598;SDS011;51008;51.504;11.548;2022-11-15T07:23:25;14.75;;;8.32;;
64598;SDS011;51008;51.504;11.548;2022-11-15T07:28:44;19.17;;;10.10;;
64598;SDS011;51008;51.504;11.548;2022-11-15T07:34:04;28.05;;;13.80;;
64598;SDS011;51008;51.504;11.548;2022-11-15T07:39:24;18.95;;;9.90;;
64598;SDS011;51008;51.504;11.548;2022-11-15T07:44:43;17.38;;;9.95;;
64598;SDS011;51008;51.504;11.548;2022-11-15T07:50:03;14.75;;;7.85;;
64598;SDS011;51008;51.504;11.548;2022-11-15T07:55:23;13.10;;;7.07;;
64598;SDS011;51008;51.504;11.548;2022-11-15T08:00:44;12.77;;;8.07;;
64598;SDS011;51008;51.504;11.548;2022-11-15T08:06:03;15.85;;;8.57;;
64598;SDS011;51008;51.504;11.548;2022-11-15T08:11:23;14.30;;;8.13;;
64598;SDS011;51008;51.504;11.548;2022-11-15T08:16:43;16.05;;;8.18;;
64598;SDS011;51008;51.504;11.548;2022-11-15T08:22:02;13.65;;;7.90;;
64598;SDS011;51008;51.504;11.548;2022-11-15T08:27:22;14.68;;;8.88;;
64598;SDS011;51008;51.504;11.548;2022-11-15T08:32:42;15.93;;;8.65;;
64598;SDS011;51008;51.504;11.548;2022-11-15T08:38:02;14.60;;;8.45;;
64598;SDS011;51008;51.504;11.548;2022-11-15T08:43:21;16.75;;;9.20;;
64598;SDS011;51008;51.504;11.548;2022-11-15T08:48:41;15.10;;;9.05;;
64598;SDS011;51008;51.504;11.548;2022-11-15T08:54:01;17.75;;;8.70;;
64598;SDS011;51008;51.504;11.548;2022-11-15T08:59:20;15.27;;;9.07;;
64598;SDS011;51008;51.504;11.548;2022-11-15T09:04:43;14.32;;;8.15;;
64598;SDS011;51008;51.504;11.548;2022-11-15T09:10:03;16.27;;;7.85;;
64598;SDS011;51008;51.504;11.548;2022-11-15T09:15:23;15.48;;;8.05;;
64598;SDS011;51008;51.504;11.548;2022-11-15T09:20:42;17.13;;;7.20;;
64598;SDS011;51008;51.504;11.548;2022-11-15T09:26:03;13.77;;;6.57;;
64598;SDS011;51008;51.504;11.548;2022-11-15T09:31:23;12.50;;;6.13;;
64598;SDS011;51008;51.504;11.548;2022-11-15T09:36:43;16.85;;;6.53;;
64598;SDS011;51008;51.504;11.548;2022-11-15T09:42:25;10.25;;;5.22;;
64598;SDS011;51008;51.504;11.548;2022-11-15T09:53:11;15.93;;;9.57;;
64598;SDS011;51008;51.504;11.548;2022-11-15T10:03:45;15.38;;;8.07;;
64598;SDS011;51008;51.504;11.548;2022-11-15T10:09:21;16.85;;;9.20;;
64598;SDS011;51008;51.504;11.548;2022-11-15T10:14:21;15.00;;;8.10;;
64598;SDS011;51008;51.504;11.548;2022-11-15T10:30:14;15.88;;;8.20;;
64598;SDS011;51008;51.504;11.548;2022-11-15T10:35:21;13.70;;;6.90;;
64598;SDS011;51008;51.504;11.548;2022-11-15T10:40:27;15.40;;;8.18;;
64598;SDS011;51008;51.504;11.548;2022-11-15T10:45:29;12.50;;;7.60;;
64598;SDS011;51008;51.504;11.548;2022-11-15T10:50:32;15.13;;;6.97;;
64598;SDS011;51008;51.504;11.548;2022-11-15T10:55:33;11.40;;;5.93;;
64598;SDS011;51008;51.504;11.548;2022-11-15T11:00:36;14.73;;;6.65;;
64598;SDS011;51008;51.504;11.548;2022-11-15T11:05:38;11.70;;;4.90;;
64598;SDS011;51008;51.504;11.548;2022-11-15T11:10:54;13.33;;;5.27;;
64598;SDS011;51008;51.504;11.548;2022-11-15T11:16:04;9.75;;;4.80;;
64598;SDS011;51008;51.504;11.548;2022-11-15T11:32:46;12.38;;;4.82;;
64598;SDS011;51008;51.504;11.548;2022-11-15T11:53:54;7.57;;;3.17;;
64598;SDS011;51008;51.504;11.548;2022-11-15T11:59:05;9.30;;;3.60;;
64598;SDS011;51008;51.504;11.548;2022-11-15T12:09:41;12.40;;;4.07;;
64598;SDS011;51008;51.504;11.548;2022-11-15T12:14:49;8.98;;;3.67;;
64598;SDS011;51008;51.504;11.548;2022-11-15T12:19:55;5.38;;;3.50;;
64598;SDS011;51008;51.504;11.548;2022-11-15T12:25:00;9.55;;;3.60;;
64598;SDS011;51008;51.504;11.548;2022-11-15T12:30:12;7.80;;;4.10;;
64598;SDS011;51008;51.504;11.548;2022-11-15T12:35:27;10.40;;;4.00;;
64598;SDS011;51008;51.504;11.548;2022-11-15T12:40:35;6.60;;;3.88;;
64598;SDS011;51008;51.504;11.548;2022-11-15T12:45:38;6.22;;;3.53;;
64598;SDS011;51008;51.504;11.548;2022-11-15T13:06:38;8.35;;;4.15;;
64598;SDS011;51008;51.504;11.548;2022-11-15T13:11:44;9.23;;;4.07;;
64598;SDS011;51008;51.504;11.548;2022-11-15T13:16:47;7.60;;;3.83;;
64598;SDS011;51008;51.504;11.548;2022-11-15T13:21:49;12.07;;;3.95;;
64598;SDS011;51008;51.504;11.548;2022-11-15T13:26:50;11.77;;;3.72;;
64598;SDS011;51008;51.504;11.548;2022-11-15T13:31:51;12.25;;;3.95;;
64598;SDS011;51008;51.504;11.548;2022-11-15T13:36:52;8.48;;;3.90;;
64598;SDS011;51008;51.504;11.548;2022-11-15T13:41:53;9.20;;;3.75;;
64598;SDS011;51008;51.504;11.548;2022-11-15T13:47:05;6.53;;;3.58;;
64598;SDS011;51008;51.504;11.548;2022-11-15T13:52:16;7.03;;;3.13;;
64598;SDS011;51008;51.504;11.548;2022-11-15T13:57:21;9.20;;;3.83;;
64598;SDS011;51008;51.504;11.548;2022-11-15T14:02:27;9.52;;;3.95;;
64598;SDS011;51008;51.504;11.548;2022-11-15T14:07:31;7.70;;;3.83;;
64598;SDS011;51008;51.504;11.548;2022-11-15T14:12:33;6.53;;;4.00;;
64598;SDS011;51008;51.504;11.548;2022-11-15T14:17:36;7.53;;;3.90;;
64598;SDS011;51008;51.504;11.548;2022-11-15T14:22:38;9.07;;;4.00;;
64598;SDS011;51008;51.504;11.548;2022-11-15T14:38:34;13.45;;;4.70;;
64598;SDS011;51008;51.504;11.548;2022-11-15T14:43:35;8.60;;;3.95;;
64598;SDS011;51008;51.504;11.548;2022-11-15T14:48:36;8.82;;;4.55;;
64598;SDS011;51008;51.504;11.548;2022-11-15T14:53:37;9.23;;;3.97;;
64598;SDS011;51008;51.504;11.548;2022-11-15T14:58:40;9.05;;;4.65;;
64598;SDS011;51008;51.504;11.548;2022-11-15T15:03:41;8.75;;;4.82;;
64598;SDS011;51008;51.504;11.548;2022-11-15T15:08:42;8.45;;;4.03;;
64598;SDS011;51008;51.504;11.548;2022-11-15T15:13:43;8.80;;;4.50;;
64598;SDS011;51008;51.504;11.548;2022-11-15T15:18:44;7.88;;;3.97;;
64598;SDS011;51008;51.504;11.548;2022-11-15T15:23:45;7.70;;;4.18;;
64598;SDS011;51008;51.504;11.548;2022-11-15T15:28:46;9.02;;;4.45;;
64598;SDS011;51008;51.504;11.548;2022-11-15T15:33:47;8.00;;;4.40;;
64598;SDS011;51008;51.504;11.548;2022-11-15T15:38:48;8.00;;;4.28;;
64598;SDS011;51008;51.504;11.548;2022-11-15T15:43:49;7.65;;;3.95;;
64598;SDS011;51008;51.504;11.548;2022-11-15T15:48:50;11.45;;;6.15;;
64598;SDS011;51008;51.504;11.548;2022-11-15T15:53:51;10.93;;;6.15;;
64598;SDS011;51008;51.504;11.548;2022-11-15T15:58:52;12.18;;;6.10;;
64598;SDS011;51008;51.504;11.548;2022-11-15T16:03:53;10.38;;;5.60;;
64598;SDS011;51008;51.504;11.548;2022-11-15T16:08:54;10.50;;;5.70;;
64598;SDS011;51008;51.504;11.548;2022-11-15T16:13:55;6.30;;;4.10;;
64598;SDS011;51008;51.504;11.548;2022-11-15T16:18:56;9.07;;;4.65;;
64598;SDS011;51008;51.504;11.548;2022-11-15T16:23:57;10.52;;;4.70;;
64598;SDS011;51008;51.504;11.548;2022-11-15T16:28:58;9.05;;;4.32;;
64598;SDS011;51008;51.504;11.548;2022-11-15T16:33:59;8.95;;;4.10;;
64598;SDS011;51008;51.504;11.548;2022-11-15T16:39:00;11.38;;;5.00;;
64598;SDS011;51008;51.504;11.548;2022-11-15T16:44:02;9.05;;;4.80;;
64598;SDS011;51008;51.504;11.548;2022-11-15T16:49:03;9.23;;;5.57;;
64598;SDS011;51008;51.504;11.548;2022-11-15T16:54:04;10.50;;;5.72;;
64598;SDS011;51008;51.504;11.548;2022-11-15T16:59:05;9.70;;;4.90;;
64598;SDS011;51008;51.504;11.548;2022-11-15T17:04:06;8.15;;;4.63;;
64598;SDS011;51008;51.504;11.548;2022-11-15T17:09:13;7.15;;;4.70;;
64598;SDS011;51008;51.504;11.548;2022-11-15T17:14:17;9.27;;;4.95;;
64598;SDS011;51008;51.504;11.548;2022-11-15T17:19:19;9.10;;;5.38;;
64598;SDS011;51008;51.504;11.548;2022-11-15T17:24:21;12.18;;;5.85;;
64598;SDS011;51008;51.504;11.548;2022-11-15T17:29:21;12.80;;;5.68;;
64598;SDS011;51008;51.504;11.548;2022-11-15T17:34:22;18.77;;;6.22;;
64598;SDS011;51008;51.504;11.548;2022-11-15T17:39:23;12.05;;;6.57;;
64598;SDS011;51008;51.504;11.548;2022-11-15T17:44:24;14.40;;;6.18;;
64598;SDS011;51008;51.504;11.548;2022-11-15T17:49:25;11.23;;;6.10;;
64598;SDS011;51008;51.504;11.548;2022-11-15T17:54:26;12.80;;;5.82;;
64598;SDS011;51008;51.504;11.548;2022-11-15T17:59:27;10.93;;;6.03;;
64598;SDS011;51008;51.504;11.548;2022-11-15T18:04:28;12.07;;;5.80;;
64598;SDS011;51008;51.504;11.548;2022-11-15T18:09:29;14.48;;;7.35;;
64598;SDS011;51008;51.504;11.548;2022-11-15T18:14:30;12.88;;;7.10;;
64598;SDS011;51008;51.504;11.548;2022-11-15T18:19:31;13.60;;;7.10;;
64598;SDS011;51008;51.504;11.548;2022-11-15T18:24:35;14.15;;;7.05;;
64598;SDS011;51008;51.504;11.548;2022-11-15T18:29:36;10.23;;;6.15;;
64598;SDS011;51008;51.504;11.548;2022-11-15T18:34:37;11.32;;;7.03;;
64598;SDS011;51008;51.504;11.548;2022-11-15T18:39:38;14.85;;;8.20;;
64598;SDS011;51008;51.504;11.548;2022-11-15T18:44:39;18.40;;;7.95;;
64598;SDS011;51008;51.504;11.548;2022-11-15T18:49:40;15.48;;;8.07;;
64598;SDS011;51008;51.504;11.548;2022-11-15T18:54:41;16.30;;;8.00;;
64598;SDS011;51008;51.504;11.548;2022-11-15T18:59:42;12.63;;;7.43;;
64598;SDS011;51008;51.504;11.548;2022-11-15T19:04:43;13.40;;;7.22;;
64598;SDS011;51008;51.504;11.548;2022-11-15T19:09:44;12.82;;;7.22;;
64598;SDS011;51008;51.504;11.548;2022-11-15T19:14:45;15.27;;;8.02;;
64598;SDS011;51008;51.504;11.548;2022-11-15T19:19:46;17.20;;;8.13;;
64598;SDS011;51008;51.504;11.548;2022-11-15T19:24:47;16.05;;;8.05;;
64598;SDS011;51008;51.504;11.548;2022-11-15T19:29:48;14.80;;;8.07;;
64598;SDS011;51008;51.504;11.548;2022-11-15T19:34:49;12.88;;;7.95;;
64598;SDS011;51008;51.504;11.548;2022-11-15T19:39:51;16.17;;;7.70;;
64598;SDS011;51008;51.504;11.548;2022-11-15T19:44:52;14.88;;;7.50;;
64598;SDS011;51008;51.504;11.548;2022-11-15T19:49:53;13.27;;;7.47;;
64598;SDS011;51008;51.504;11.548;2022-11-15T19:54:54;15.75;;;8.10;;
64598;SDS011;51008;51.504;11.548;2022-11-15T19:59:55;14.15;;;6.70;;
64598;SDS011;51008;51.504;11.548;2022-11-15T20:04:56;11.80;;;6.93;;
64598;SDS011;51008;51.504;11.548;2022-11-15T20:09:57;15.25;;;7.88;;
64598;SDS011;51008;51.504;11.548;2022-11-15T20:14:57;14.90;;;8.07;;
64598;SDS011;51008;51.504;11.548;2022-11-15T20:19:58;14.68;;;8.35;;
64598;SDS011;51008;51.504;11.548;2022-11-15T20:24:59;16.33;;;8.95;;
64598;SDS011;51008;51.504;11.548;2022-11-15T20:30:01;15.98;;;8.13;;
64598;SDS011;51008;51.504;11.548;2022-11-15T20:35:02;18.77;;;8.27;;
64598;SDS011;51008;51.504;11.548;2022-11-15T20:40:03;15.00;;;8.90;;
64598;SDS011;51008;51.504;11.548;2022-11-15T20:45:05;15.40;;;8.35;;
64598;SDS011;51008;51.504;11.548;2022-11-15T20:50:06;15.25;;;8.73;;
64598;SDS011;51008;51.504;11.548;2022-11-15T20:55:08;16.02;;;8.38;;
64598;SDS011;51008;51.504;11.548;2022-11-15T21:00:09;14.52;;;7.78;;
64598;SDS011;51008;51.504;11.548;2022-11-15T21:05:10;18.35;;;8.02;;
64598;SDS011;51008;51.504;11.548;2022-11-15T21:10:11;17.92;;;9.05;;
64598;SDS011;51008;51.504;11.548;2022-11-15T21:15:12;17.42;;;9.88;;
64598;SDS011;51008;51.504;11.548;2022-11-15T21:20:13;14.38;;;9.25;;
64598;SDS011;51008;51.504;11.548;2022-11-15T21:25:14;16.58;;;9.48;;
64598;SDS011;51008;51.504;11.548;2022-11-15T21:30:16;15.45;;;8.13;;
64598;SDS011;51008;51.504;11.548;2022-11-15T21:35:17;18.25;;;9.82;;
64598;SDS011;51008;51.504;11.548;2022-11-15T21:40:18;18.52;;;9.77;;
64598;SDS011;51008;51.504;11.548;2022-11-15T21:45:19;19.60;;;11.35;;
64598;SDS011;51008;51.504;11.548;2022-11-15T21:50:20;22.23;;;11.90;;
64598;SDS011;51008;51.504;11.548;2022-11-15T21:55:21;30.17;;;12.57;;
64598;SDS011;51008;51.504;11.548;2022-11-15T22:00:22;21.20;;;11.43;;
64598;SDS011;51008;51.504;11.548;2022-11-15T22:05:23;21.23;;;10.70;;
64598;SDS011;51008;51.504;11.548;2022-11-15T22:10:24;18.73;;;11.05;;
64598;SDS011;51008;51.504;11.548;2022-11-15T22:15:25;18.90;;;10.93;;
64598;SDS011;51008;51.504;11.548;2022-11-15T22:20:26;21.05;;;11.80;;
64598;SDS011;51008;51.504;11.548;2022-11-15T22:25:28;20.67;;;10.75;;
64598;SDS011;51008;51.504;11.548;2022-11-15T22:30:29;16.10;;;9.55;;
64598;SDS011;51008;51.504;11.548;2022-11-15T22:35:30;19.98;;;10.90;;
64598;SDS011;51008;51.504;11.548;2022-11-15T22:40:31;19.40;;;10.60;;
64598;SDS011;51008;51.504;11.548;2022-11-15T22:45:32;19.23;;;11.27;;
64598;SDS011;51008;51.504;11.548;2022-11-15T22:50:33;21.15;;;11.35;;
64598;SDS011;51008;51.504;11.548;2022-11-15T22:55:36;20.15;;;10.80;;
64598;SDS011;51008;51.504;11.548;2022-11-15T23:00:38;21.92;;;11.45;;
64598;SDS011;51008;51.504;11.548;2022-11-15T23:05:39;23.05;;;12.50;;
64598;SDS011;51008;51.504;11.548;2022-11-15T23:10:40;26.23;;;14.50;;
64598;SDS011;51008;51.504;11.548;2022-11-15T23:15:42;32.53;;;16.25;;
64598;SDS011;51008;51.504;11.548;2022-11-15T23:20:47;25.48;;;12.88;;
64598;SDS011;51008;51.504;11.548;2022-11-15T23:25:56;25.15;;;12.70;;
64598;SDS011;51008;51.504;11.548;2022-11-15T23:31:02;24.90;;;13.15;;
64598;SDS011;51008;51.504;11.548;2022-11-15T23:36:04;23.35;;;13.65;;
64598;SDS011;51008;51.504;11.548;2022-11-15T23:41:05;27.55;;;12.55;;
64598;SDS011;51008;51.504;11.548;2022-11-15T23:46:06;26.88;;;13.48;;
64598;SDS011;51008;51.504;11.548;2022-11-15T23:51:07;24.40;;;13.05;;
64598;SDS011;51008;51.504;11.548;2022-11-15T23:56:09;24.92;;;12.95;;
